Shibin el-Kom, Egypt
Current Conditions -  °F | °C
As of 1:30 PM on Thursday 27 Nov 2014 (Local Time) from HECA Reporting Station
Broken Clouds Broken Clouds  
Wind Chill: 66°   Ceiling: 7000
Heat Index: 66°   Visibility: 6mi
Dew Point: 48°   Wind: 8mph
Humidity: 52%   Direction: 290°WNW
Pressure: 30.09"   Gusts: NA
Location:  30.59°N, 30.9°E
Report Text: HECA 271130Z 29007KT 9999 SCT025 BKN070 19/09 Q1019 NOSIG
Loading
Personal Weather Stations






























Interactive Weather Map New forecast layout! Learn more

10-Day Weather Forecast

Advertisements
Track Severe Weather on mobile